Terminal Aerodrome Forecast
Issued by NWS Boston, MA

Home | Current Version | Previous Version | Text Only | Print | Product List | Glossary On
Versions: 1 2 3 4 5 6 7 8 9 10 11 12 13 14 15 16 17 18 19 20 21 22 23 24 25 26 27 28 29 30 31 32 33 34 35 36 37 38 39 40 41 42 43 44 45 46 47 48 49
000
FTUS41 KBOX 260536
TAFBOS
TAF
KBOS 260536Z 2606/2712 25009KT P6SM SCT130
     FM261200 34005KT 6SM -RA OVC080
     FM261500 36007KT 5SM -RA OVC025
     FM261800 03009KT 1SM RASN OVC008
     FM262100 03013G27KT 1SM RASN OVC008
     FM270400 36017G27KT 2SM -SNRA OVC008
     FM270600 34017G26KT P6SM OVC015
     FM270900 33014G21KT P6SM BKN040=

USA.gov is the U.S. government's official web portal to all federal, state and local government web resources and services.